sensor_id;sensor_type;location;lat;lon;timestamp;pressure;altitude;pressure_sealevel;temperature;humidity
10587;BME280;5341;47.606;7.576;2022-08-05T00:01:16;98460.06;;;30.99;33.16
10587;BME280;5341;47.606;7.576;2022-08-05T00:03:45;98461.22;;;31.06;33.88
10587;BME280;5341;47.606;7.576;2022-08-05T00:06:14;98460.06;;;31.07;34.37
10587;BME280;5341;47.606;7.576;2022-08-05T00:08:43;98479.88;;;30.92;35.06
10587;BME280;5341;47.606;7.576;2022-08-05T00:11:14;98477.56;;;30.77;34.81
10587;BME280;5341;47.606;7.576;2022-08-05T00:13:43;98468.47;;;30.68;34.71
10587;BME280;5341;47.606;7.576;2022-08-05T00:16:12;98461.56;;;30.48;34.52
10587;BME280;5341;47.606;7.576;2022-08-05T00:18:44;98476.81;;;30.45;34.50
10587;BME280;5341;47.606;7.576;2022-08-05T00:21:22;98483.97;;;30.46;34.14
10587;BME280;5341;47.606;7.576;2022-08-05T00:24:01;98482.66;;;30.52;33.81
10587;BME280;5341;47.606;7.576;2022-08-05T00:26:32;98463.72;;;30.59;33.52
10587;BME280;5341;47.606;7.576;2022-08-05T00:28:59;98463.06;;;30.62;33.42
10587;BME280;5341;47.606;7.576;2022-08-05T00:31:27;98464.56;;;30.69;33.22
10587;BME280;5341;47.606;7.576;2022-08-05T00:33:54;98458.06;;;30.73;33.34
10587;BME280;5341;47.606;7.576;2022-08-05T00:36:22;98448.97;;;30.73;33.85
10587;BME280;5341;47.606;7.576;2022-08-05T00:38:50;98446.22;;;30.73;33.61
10587;BME280;5341;47.606;7.576;2022-08-05T00:41:27;98452.72;;;30.77;33.37
10587;BME280;5341;47.606;7.576;2022-08-05T00:43:56;98450.78;;;30.77;33.13
10587;BME280;5341;47.606;7.576;2022-08-05T00:46:24;98452.91;;;30.80;32.85
10587;BME280;5341;47.606;7.576;2022-08-05T00:48:52;98462.00;;;30.81;33.22
10587;BME280;5341;47.606;7.576;2022-08-05T00:51:20;98467.50;;;30.72;32.70
10587;BME280;5341;47.606;7.576;2022-08-05T00:53:49;98469.09;;;30.65;33.39
10587;BME280;5341;47.606;7.576;2022-08-05T00:56:17;98483.81;;;30.51;33.69
10587;BME280;5341;47.606;7.576;2022-08-05T00:58:46;98483.78;;;30.43;33.51
10587;BME280;5341;47.606;7.576;2022-08-05T01:01:15;98479.53;;;30.37;34.05
10587;BME280;5341;47.606;7.576;2022-08-05T01:03:43;98472.25;;;30.41;34.11
10587;BME280;5341;47.606;7.576;2022-08-05T01:06:10;98475.19;;;30.44;33.61
10587;BME280;5341;47.606;7.576;2022-08-05T01:08:38;98489.31;;;30.43;33.58
10587;BME280;5341;47.606;7.576;2022-08-05T01:11:11;98487.69;;;30.42;33.53
10587;BME280;5341;47.606;7.576;2022-08-05T01:13:46;98483.47;;;30.44;34.02
10587;BME280;5341;47.606;7.576;2022-08-05T01:16:22;98484.78;;;30.47;33.94
10587;BME280;5341;47.606;7.576;2022-08-05T01:18:53;98486.72;;;30.46;33.86
10587;BME280;5341;47.606;7.576;2022-08-05T01:21:56;98489.00;;;30.44;34.04
10587;BME280;5341;47.606;7.576;2022-08-05T01:24:49;98480.50;;;30.41;34.09
10587;BME280;5341;47.606;7.576;2022-08-05T01:27:28;98486.19;;;30.36;34.13
10587;BME280;5341;47.606;7.576;2022-08-05T01:30:02;98482.94;;;30.33;34.02
10587;BME280;5341;47.606;7.576;2022-08-05T01:32:33;98478.56;;;30.32;34.10
10587;BME280;5341;47.606;7.576;2022-08-05T01:35:03;98475.47;;;30.34;33.95
10587;BME280;5341;47.606;7.576;2022-08-05T01:37:37;98478.41;;;30.38;34.33
10587;BME280;5341;47.606;7.576;2022-08-05T01:40:07;98477.91;;;30.36;34.03
10587;BME280;5341;47.606;7.576;2022-08-05T01:42:38;98478.06;;;30.30;34.32
10587;BME280;5341;47.606;7.576;2022-08-05T01:45:09;98484.72;;;30.29;34.08
10587;BME280;5341;47.606;7.576;2022-08-05T01:47:41;98486.16;;;30.27;33.92
10587;BME280;5341;47.606;7.576;2022-08-05T01:50:14;98482.25;;;30.28;34.06
10587;BME280;5341;47.606;7.576;2022-08-05T01:52:46;98480.31;;;30.28;33.96
10587;BME280;5341;47.606;7.576;2022-08-05T01:55:16;98479.81;;;30.26;34.17
10587;BME280;5341;47.606;7.576;2022-08-05T01:57:46;98483.22;;;30.23;33.88
10587;BME280;5341;47.606;7.576;2022-08-05T02:00:15;98479.16;;;30.21;34.50
10587;BME280;5341;47.606;7.576;2022-08-05T02:02:46;98481.75;;;30.17;34.47
10587;BME280;5341;47.606;7.576;2022-08-05T02:05:15;98494.03;;;30.11;34.46
10587;BME280;5341;47.606;7.576;2022-08-05T02:07:44;98479.25;;;30.07;34.52
10587;BME280;5341;47.606;7.576;2022-08-05T02:10:12;98479.25;;;30.07;34.72
10587;BME280;5341;47.606;7.576;2022-08-05T02:12:45;98483.16;;;30.06;35.05
10587;BME280;5341;47.606;7.576;2022-08-05T02:15:19;98486.19;;;30.04;34.89
10587;BME280;5341;47.606;7.576;2022-08-05T02:17:51;98492.31;;;30.01;35.00
10587;BME280;5341;47.606;7.576;2022-08-05T02:20:22;98493.78;;;29.99;34.79
10587;BME280;5341;47.606;7.576;2022-08-05T02:22:55;98495.22;;;29.96;34.89
10587;BME280;5341;47.606;7.576;2022-08-05T02:25:26;98491.16;;;29.94;35.22
10587;BME280;5341;47.606;7.576;2022-08-05T02:27:55;98493.72;;;29.90;34.93
10587;BME280;5341;47.606;7.576;2022-08-05T02:30:27;98497.94;;;29.88;34.50
10587;BME280;5341;47.606;7.576;2022-08-05T02:32:57;98495.16;;;29.88;34.71
10587;BME280;5341;47.606;7.576;2022-08-05T02:35:27;98497.44;;;29.86;35.06
10587;BME280;5341;47.606;7.576;2022-08-05T02:37:57;98500.19;;;29.86;35.29
10587;BME280;5341;47.606;7.576;2022-08-05T02:40:25;98505.72;;;29.86;35.45
10587;BME280;5341;47.606;7.576;2022-08-05T02:42:53;98502.13;;;29.85;35.06
10587;BME280;5341;47.606;7.576;2022-08-05T02:45:22;98501.63;;;29.83;35.32
10587;BME280;5341;47.606;7.576;2022-08-05T02:47:53;98500.84;;;29.83;35.75
10587;BME280;5341;47.606;7.576;2022-08-05T02:50:23;98505.00;;;29.80;36.03
10587;BME280;5341;47.606;7.576;2022-08-05T02:52:52;98516.19;;;29.75;35.77
10587;BME280;5341;47.606;7.576;2022-08-05T02:55:21;98508.78;;;29.62;35.70
10587;BME280;5341;47.606;7.576;2022-08-05T02:57:49;98512.50;;;29.57;36.30
10587;BME280;5341;47.606;7.576;2022-08-05T03:00:17;98513.81;;;29.60;36.44
10587;BME280;5341;47.606;7.576;2022-08-05T03:02:46;98515.44;;;29.61;36.13
10587;BME280;5341;47.606;7.576;2022-08-05T03:05:16;98516.16;;;29.53;36.25
10587;BME280;5341;47.606;7.576;2022-08-05T03:07:44;98519.88;;;29.48;36.59
10587;BME280;5341;47.606;7.576;2022-08-05T03:10:14;98523.13;;;29.50;36.90
10587;BME280;5341;47.606;7.576;2022-08-05T03:12:42;98515.50;;;29.47;37.21
10587;BME280;5341;47.606;7.576;2022-08-05T03:15:10;98515.88;;;29.40;36.61
10587;BME280;5341;47.606;7.576;2022-08-05T03:17:38;98510.50;;;29.35;36.59
10587;BME280;5341;47.606;7.576;2022-08-05T03:20:07;98502.88;;;29.32;36.64
10587;BME280;5341;47.606;7.576;2022-08-05T03:22:36;98494.88;;;29.31;37.44
10587;BME280;5341;47.606;7.576;2022-08-05T03:25:04;98501.22;;;29.31;37.63
10587;BME280;5341;47.606;7.576;2022-08-05T03:27:33;98502.34;;;29.30;37.71
10587;BME280;5341;47.606;7.576;2022-08-05T03:30:00;98495.69;;;29.31;37.82
10587;BME280;5341;47.606;7.576;2022-08-05T03:32:28;98491.31;;;29.30;37.72
10587;BME280;5341;47.606;7.576;2022-08-05T03:34:56;98491.13;;;29.27;37.38
10587;BME280;5341;47.606;7.576;2022-08-05T03:37:24;98489.81;;;29.24;37.76
10587;BME280;5341;47.606;7.576;2022-08-05T03:39:54;98494.94;;;29.17;38.14
10587;BME280;5341;47.606;7.576;2022-08-05T03:42:22;98493.63;;;29.14;37.95
10587;BME280;5341;47.606;7.576;2022-08-05T03:44:50;98500.88;;;29.10;38.08
10587;BME280;5341;47.606;7.576;2022-08-05T03:47:17;98494.88;;;29.08;38.02
10587;BME280;5341;47.606;7.576;2022-08-05T03:49:45;98484.97;;;29.07;37.95
10587;BME280;5341;47.606;7.576;2022-08-05T03:52:18;98481.38;;;29.07;38.07
10587;BME280;5341;47.606;7.576;2022-08-05T03:54:55;98483.34;;;29.06;37.83
10587;BME280;5341;47.606;7.576;2022-08-05T03:57:26;98485.28;;;29.06;37.79
10587;BME280;5341;47.606;7.576;2022-08-05T03:59:57;98492.72;;;29.05;37.89
10587;BME280;5341;47.606;7.576;2022-08-05T04:02:30;98482.34;;;29.02;38.20
10587;BME280;5341;47.606;7.576;2022-08-05T04:04:59;98488.97;;;29.01;38.25
10587;BME280;5341;47.606;7.576;2022-08-05T04:07:27;98484.91;;;28.99;38.14
10587;BME280;5341;47.606;7.576;2022-08-05T04:09:57;98489.59;;;28.98;38.45
10587;BME280;5341;47.606;7.576;2022-08-05T04:12:24;98497.84;;;28.98;38.42
10587;BME280;5341;47.606;7.576;2022-08-05T04:14:53;98493.78;;;28.96;38.39
10587;BME280;5341;47.606;7.576;2022-08-05T04:17:20;98492.75;;;28.92;38.20
10587;BME280;5341;47.606;7.576;2022-08-05T04:19:48;98492.75;;;28.92;38.02
10587;BME280;5341;47.606;7.576;2022-08-05T04:22:16;98493.88;;;28.91;37.95
10587;BME280;5341;47.606;7.576;2022-08-05T04:24:44;98498.06;;;28.88;38.00
10587;BME280;5341;47.606;7.576;2022-08-05T04:27:14;98496.94;;;28.89;38.47
10587;BME280;5341;47.606;7.576;2022-08-05T04:29:41;98501.00;;;28.92;38.44
10587;BME280;5341;47.606;7.576;2022-08-05T04:32:09;98509.59;;;28.90;38.26
10587;BME280;5341;47.606;7.576;2022-08-05T04:34:37;98517.63;;;28.86;38.08
10587;BME280;5341;47.606;7.576;2022-08-05T04:37:05;98515.19;;;28.85;38.65
10587;BME280;5341;47.606;7.576;2022-08-05T04:39:32;98513.78;;;28.87;38.99
10587;BME280;5341;47.606;7.576;2022-08-05T04:42:00;98523.53;;;28.80;39.58
10587;BME280;5341;47.606;7.576;2022-08-05T04:44:29;98528.13;;;28.71;39.90
10587;BME280;5341;47.606;7.576;2022-08-05T04:46:57;98535.38;;;28.67;39.70
10587;BME280;5341;47.606;7.576;2022-08-05T04:49:25;98529.34;;;28.65;39.95
10587;BME280;5341;47.606;7.576;2022-08-05T04:51:52;98540.75;;;28.58;40.36
10587;BME280;5341;47.606;7.576;2022-08-05T04:54:20;98560.25;;;28.15;42.64
10587;BME280;5341;47.606;7.576;2022-08-05T04:56:51;98585.13;;;27.72;43.50
10587;BME280;5341;47.606;7.576;2022-08-05T04:59:20;98602.56;;;27.44;45.37
10587;BME280;5341;47.606;7.576;2022-08-05T05:01:51;98626.44;;;27.01;45.93
10587;BME280;5341;47.606;7.576;2022-08-05T05:04:20;98635.09;;;26.89;45.50
10587;BME280;5341;47.606;7.576;2022-08-05T05:06:48;98633.63;;;27.02;44.75
10587;BME280;5341;47.606;7.576;2022-08-05T05:09:15;98622.66;;;27.21;44.26
10587;BME280;5341;47.606;7.576;2022-08-05T05:11:43;98629.22;;;27.43;43.68
10587;BME280;5341;47.606;7.576;2022-08-05T05:14:10;98627.06;;;27.64;43.05
10587;BME280;5341;47.606;7.576;2022-08-05T05:16:38;98624.38;;;27.78;42.57
10587;BME280;5341;47.606;7.576;2022-08-05T05:19:07;98624.28;;;27.83;42.51
10587;BME280;5341;47.606;7.576;2022-08-05T05:21:35;98635.28;;;27.83;42.22
10587;BME280;5341;47.606;7.576;2022-08-05T05:24:03;98629.78;;;27.83;42.25
10587;BME280;5341;47.606;7.576;2022-08-05T05:26:30;98616.47;;;27.90;41.96
10587;BME280;5341;47.606;7.576;2022-08-05T05:28:58;98612.16;;;28.03;41.92
10587;BME280;5341;47.606;7.576;2022-08-05T05:31:25;98597.13;;;28.14;41.22
10587;BME280;5341;47.606;7.576;2022-08-05T05:33:53;98604.66;;;28.22;41.05
10587;BME280;5341;47.606;7.576;2022-08-05T05:36:22;98602.38;;;28.29;41.02
10587;BME280;5341;47.606;7.576;2022-08-05T05:38:49;98601.47;;;28.34;41.04
10587;BME280;5341;47.606;7.576;2022-08-05T05:41:17;98601.59;;;28.43;40.84
10587;BME280;5341;47.606;7.576;2022-08-05T05:43:44;98597.94;;;28.47;41.01
10587;BME280;5341;47.606;7.576;2022-08-05T05:46:12;98592.94;;;28.49;40.88
10587;BME280;5341;47.606;7.576;2022-08-05T05:48:39;98589.28;;;28.54;40.70
10587;BME280;5341;47.606;7.576;2022-08-05T05:51:08;98587.94;;;28.51;40.93
10587;BME280;5341;47.606;7.576;2022-08-05T05:53:37;98586.94;;;28.47;41.18
10587;BME280;5341;47.606;7.576;2022-08-05T05:56:05;98600.25;;;28.40;41.34
10587;BME280;5341;47.606;7.576;2022-08-05T05:58:34;98598.88;;;28.24;41.75
10587;BME280;5341;47.606;7.576;2022-08-05T06:01:01;98598.31;;;28.08;41.77
10587;BME280;5341;47.606;7.576;2022-08-05T06:03:29;98602.19;;;28.07;41.57
10587;BME280;5341;47.606;7.576;2022-08-05T06:05:56;98608.41;;;28.13;41.77
10587;BME280;5341;47.606;7.576;2022-08-05T06:08:24;98602.31;;;28.16;41.41
10587;BME280;5341;47.606;7.576;2022-08-05T06:10:54;98600.88;;;28.18;41.29
10587;BME280;5341;47.606;7.576;2022-08-05T06:13:21;98608.25;;;28.23;41.18
10587;BME280;5341;47.606;7.576;2022-08-05T06:15:49;98612.63;;;28.24;41.34
10587;BME280;5341;47.606;7.576;2022-08-05T06:18:16;98615.75;;;28.17;41.29
10587;BME280;5341;47.606;7.576;2022-08-05T06:20:44;98622.38;;;28.16;41.91
10587;BME280;5341;47.606;7.576;2022-08-05T06:23:13;98618.16;;;28.05;42.04
10587;BME280;5341;47.606;7.576;2022-08-05T06:25:41;98623.44;;;28.01;42.25
10587;BME280;5341;47.606;7.576;2022-08-05T06:28:10;98624.47;;;28.06;41.75
10587;BME280;5341;47.606;7.576;2022-08-05T06:30:38;98631.31;;;28.08;42.22
10587;BME280;5341;47.606;7.576;2022-08-05T06:33:06;98641.88;;;28.01;42.06
10587;BME280;5341;47.606;7.576;2022-08-05T06:35:34;98643.81;;;28.00;42.45
10587;BME280;5341;47.606;7.576;2022-08-05T06:38:02;98649.69;;;27.94;42.86
10587;BME280;5341;47.606;7.576;2022-08-05T06:40:30;98657.91;;;27.94;42.29
10587;BME280;5341;47.606;7.576;2022-08-05T06:42:58;98651.69;;;27.88;42.46
10587;BME280;5341;47.606;7.576;2022-08-05T06:45:27;98667.66;;;27.86;42.47
10587;BME280;5341;47.606;7.576;2022-08-05T06:47:56;98668.56;;;27.82;42.12
10587;BME280;5341;47.606;7.576;2022-08-05T06:50:23;98676.38;;;27.75;42.57
10587;BME280;5341;47.606;7.576;2022-08-05T06:52:52;98681.56;;;27.76;42.82
10587;BME280;5341;47.606;7.576;2022-08-05T06:55:20;98674.94;;;27.77;42.66
10587;BME280;5341;47.606;7.576;2022-08-05T06:57:48;98673.31;;;27.76;42.46
10587;BME280;5341;47.606;7.576;2022-08-05T07:00:16;98677.09;;;27.80;42.65
10587;BME280;5341;47.606;7.576;2022-08-05T07:02:47;98674.66;;;27.79;42.20
10587;BME280;5341;47.606;7.576;2022-08-05T07:05:15;98677.41;;;27.79;41.73
10587;BME280;5341;47.606;7.576;2022-08-05T07:07:43;98673.00;;;27.78;41.25
10587;BME280;5341;47.606;7.576;2022-08-05T07:10:13;98677.75;;;27.72;41.22
10587;BME280;5341;47.606;7.576;2022-08-05T07:12:41;98682.94;;;27.73;40.95
10587;BME280;5341;47.606;7.576;2022-08-05T07:15:26;98679.63;;;27.77;40.60
10587;BME280;5341;47.606;7.576;2022-08-05T07:18:12;98678.50;;;27.78;40.36
10587;BME280;5341;47.606;7.576;2022-08-05T07:20:41;98686.63;;;27.88;40.53
10587;BME280;5341;47.606;7.576;2022-08-05T07:23:10;98675.53;;;27.93;39.85
10587;BME280;5341;47.606;7.576;2022-08-05T07:25:38;98675.53;;;27.93;39.91
10587;BME280;5341;47.606;7.576;2022-08-05T07:28:06;98682.16;;;27.92;39.86
10587;BME280;5341;47.606;7.576;2022-08-05T07:30:34;98689.78;;;27.95;40.42
10587;BME280;5341;47.606;7.576;2022-08-05T07:33:05;98693.06;;;27.97;40.18
10587;BME280;5341;47.606;7.576;2022-08-05T07:35:38;98688.91;;;27.99;40.54
10587;BME280;5341;47.606;7.576;2022-08-05T07:38:06;98699.31;;;28.02;40.51
10587;BME280;5341;47.606;7.576;2022-08-05T07:40:33;98693.34;;;28.14;40.85
10587;BME280;5341;47.606;7.576;2022-08-05T07:43:02;98708.47;;;28.36;40.69
10587;BME280;5341;47.606;7.576;2022-08-05T07:45:32;98711.16;;;28.54;40.22
10587;BME280;5341;47.606;7.576;2022-08-05T07:48:04;98712.63;;;28.66;39.80
10587;BME280;5341;47.606;7.576;2022-08-05T07:50:32;98704.69;;;28.78;39.70
10587;BME280;5341;47.606;7.576;2022-08-05T07:53:01;98713.38;;;28.85;39.76
10587;BME280;5341;47.606;7.576;2022-08-05T07:55:29;98718.72;;;28.95;39.96
10587;BME280;5341;47.606;7.576;2022-08-05T07:57:57;98706.81;;;29.00;39.87
10587;BME280;5341;47.606;7.576;2022-08-05T08:00:25;98702.22;;;29.09;40.22
10587;BME280;5341;47.606;7.576;2022-08-05T08:02:53;98707.81;;;29.17;39.65
10587;BME280;5341;47.606;7.576;2022-08-05T08:05:21;98702.53;;;29.21;39.48
10587;BME280;5341;47.606;7.576;2022-08-05T08:07:52;98705.19;;;29.26;39.47
10587;BME280;5341;47.606;7.576;2022-08-05T08:10:24;98714.19;;;29.32;39.38
10587;BME280;5341;47.606;7.576;2022-08-05T08:12:51;98703.84;;;29.37;39.47
10587;BME280;5341;47.606;7.576;2022-08-05T08:15:19;98707.44;;;29.52;39.20
10587;BME280;5341;47.606;7.576;2022-08-05T08:17:46;98697.84;;;29.63;39.08
10587;BME280;5341;47.606;7.576;2022-08-05T08:20:14;98700.06;;;29.74;38.95
10587;BME280;5341;47.606;7.576;2022-08-05T08:22:42;98694.13;;;29.81;38.83
10587;BME280;5341;47.606;7.576;2022-08-05T08:25:09;98699.22;;;29.88;38.95
10587;BME280;5341;47.606;7.576;2022-08-05T08:27:38;98695.81;;;30.04;38.66
10587;BME280;5341;47.606;7.576;2022-08-05T08:30:08;98706.81;;;30.18;38.12
10587;BME280;5341;47.606;7.576;2022-08-05T08:32:36;98693.59;;;30.29;37.74
10587;BME280;5341;47.606;7.576;2022-08-05T08:35:05;98682.91;;;30.36;37.21
10587;BME280;5341;47.606;7.576;2022-08-05T08:37:33;98685.28;;;30.51;37.88
10587;BME280;5341;47.606;7.576;2022-08-05T08:40:01;98686.44;;;30.73;37.78
10587;BME280;5341;47.606;7.576;2022-08-05T08:42:29;98682.31;;;30.92;36.99
10587;BME280;5341;47.606;7.576;2022-08-05T08:44:59;98685.63;;;31.03;37.13
10587;BME280;5341;47.606;7.576;2022-08-05T08:47:27;98683.34;;;31.05;36.55
10587;BME280;5341;47.606;7.576;2022-08-05T08:49:57;98681.13;;;31.16;36.84
10587;BME280;5341;47.606;7.576;2022-08-05T08:52:28;98678.59;;;31.28;36.37
10587;BME280;5341;47.606;7.576;2022-08-05T08:54:57;98677.31;;;31.43;36.37
10587;BME280;5341;47.606;7.576;2022-08-05T08:57:24;98687.44;;;31.56;35.98
10587;BME280;5341;47.606;7.576;2022-08-05T08:59:53;98684.16;;;31.54;35.51
10587;BME280;5341;47.606;7.576;2022-08-05T09:02:22;98685.81;;;31.55;35.16
10587;BME280;5341;47.606;7.576;2022-08-05T09:04:50;98687.44;;;31.65;34.98
10587;BME280;5341;47.606;7.576;2022-08-05T09:07:18;98681.31;;;31.76;35.00
10587;BME280;5341;47.606;7.576;2022-08-05T09:09:47;98683.28;;;31.93;34.96
10587;BME280;5341;47.606;7.576;2022-08-05T09:12:14;98674.81;;;32.07;34.32
10587;BME280;5341;47.606;7.576;2022-08-05T09:14:42;98674.81;;;32.16;34.66
10587;BME280;5341;47.606;7.576;2022-08-05T09:17:10;98670.44;;;32.23;33.90
10587;BME280;5341;47.606;7.576;2022-08-05T09:19:42;98677.25;;;32.17;33.70
10587;BME280;5341;47.606;7.576;2022-08-05T09:22:12;98677.09;;;32.05;33.49
10587;BME280;5341;47.606;7.576;2022-08-05T09:24:40;98675.78;;;32.02;33.95
10587;BME280;5341;47.606;7.576;2022-08-05T09:27:10;98683.78;;;32.04;33.84
10587;BME280;5341;47.606;7.576;2022-08-05T09:29:53;98672.53;;;32.09;33.91
10587;BME280;5341;47.606;7.576;2022-08-05T09:32:33;98680.19;;;32.03;33.63
10587;BME280;5341;47.606;7.576;2022-08-05T09:35:09;98675.44;;;32.21;33.83
10587;BME280;5341;47.606;7.576;2022-08-05T09:37:38;98679.88;;;32.31;33.35
10587;BME280;5341;47.606;7.576;2022-08-05T09:40:31;98677.72;;;32.45;33.18
10587;BME280;5341;47.606;7.576;2022-08-05T09:43:00;98675.75;;;32.54;33.28
10587;BME280;5341;47.606;7.576;2022-08-05T09:45:35;98670.34;;;32.67;33.44
10587;BME280;5341;47.606;7.576;2022-08-05T09:48:21;98679.13;;;32.86;33.07
10587;BME280;5341;47.606;7.576;2022-08-05T09:50:54;98664.06;;;33.04;33.12
10587;BME280;5341;47.606;7.576;2022-08-05T09:53:23;98663.69;;;33.14;32.63
10587;BME280;5341;47.606;7.576;2022-08-05T09:55:54;98664.69;;;33.10;32.09
10587;BME280;5341;47.606;7.576;2022-08-05T09:58:26;98658.25;;;32.97;32.59
10587;BME280;5341;47.606;7.576;2022-08-05T10:00:58;98661.81;;;32.98;32.60
10587;BME280;5341;47.606;7.576;2022-08-05T10:03:27;98661.34;;;32.96;32.87
10587;BME280;5341;47.606;7.576;2022-08-05T10:06:18;98652.00;;;33.09;32.70
10587;BME280;5341;47.606;7.576;2022-08-05T10:08:49;98647.84;;;33.23;32.50
10587;BME280;5341;47.606;7.576;2022-08-05T10:11:18;98655.72;;;33.42;32.16
10587;BME280;5341;47.606;7.576;2022-08-05T10:13:47;98651.69;;;33.40;32.16
10587;BME280;5341;47.606;7.576;2022-08-05T10:16:30;98656.38;;;33.48;31.65
10587;BME280;5341;47.606;7.576;2022-08-05T10:19:00;98645.31;;;33.39;31.85
10587;BME280;5341;47.606;7.576;2022-08-05T10:21:32;98647.63;;;33.37;31.28
10587;BME280;5341;47.606;7.576;2022-08-05T10:24:00;98647.47;;;33.34;32.20
10587;BME280;5341;47.606;7.576;2022-08-05T10:26:28;98637.47;;;33.41;32.17
10587;BME280;5341;47.606;7.576;2022-08-05T10:28:56;98631.34;;;33.57;32.47
10587;BME280;5341;47.606;7.576;2022-08-05T10:31:25;98630.06;;;33.75;32.16
10587;BME280;5341;47.606;7.576;2022-08-05T10:33:53;98633.25;;;33.86;31.73
10587;BME280;5341;47.606;7.576;2022-08-05T10:36:22;98633.28;;;34.06;31.68
10587;BME280;5341;47.606;7.576;2022-08-05T10:38:54;98632.91;;;34.29;31.26
10587;BME280;5341;47.606;7.576;2022-08-05T10:41:29;98635.09;;;34.56;31.35
10587;BME280;5341;47.606;7.576;2022-08-05T10:43:59;98631.63;;;34.72;30.76
10587;BME280;5341;47.606;7.576;2022-08-05T10:46:42;98624.41;;;35.04;30.04
10587;BME280;5341;47.606;7.576;2022-08-05T10:49:10;98620.22;;;35.10;30.20
10587;BME280;5341;47.606;7.576;2022-08-05T10:51:42;98624.63;;;35.11;30.08
10587;BME280;5341;47.606;7.576;2022-08-05T10:54:12;98627.97;;;34.92;30.00
10587;BME280;5341;47.606;7.576;2022-08-05T10:56:45;98633.13;;;34.69;30.26
10587;BME280;5341;47.606;7.576;2022-08-05T10:59:16;98625.97;;;34.35;30.51
10587;BME280;5341;47.606;7.576;2022-08-05T11:01:44;98625.34;;;34.17;31.26
10587;BME280;5341;47.606;7.576;2022-08-05T11:04:13;98629.81;;;34.09;32.93
10587;BME280;5341;47.606;7.576;2022-08-05T11:07:04;98637.72;;;33.99;34.18
10587;BME280;5341;47.606;7.576;2022-08-05T11:09:43;98629.00;;;33.88;34.60
10587;BME280;5341;47.606;7.576;2022-08-05T11:12:42;98631.72;;;33.97;36.43
10587;BME280;5341;47.606;7.576;2022-08-05T11:15:17;98624.41;;;33.92;36.45
10587;BME280;5341;47.606;7.576;2022-08-05T11:17:45;98615.13;;;33.88;36.46
10587;BME280;5341;47.606;7.576;2022-08-05T11:20:32;98616.13;;;33.84;36.81
10587;BME280;5341;47.606;7.576;2022-08-05T11:23:30;98627.91;;;33.80;37.11
10587;BME280;5341;47.606;7.576;2022-08-05T11:26:19;98632.03;;;33.74;37.30
10587;BME280;5341;47.606;7.576;2022-08-05T11:28:48;98627.50;;;33.70;37.26
10587;BME280;5341;47.606;7.576;2022-08-05T11:31:24;98624.66;;;33.58;36.10
10587;BME280;5341;47.606;7.576;2022-08-05T11:33:59;98617.06;;;33.46;35.99
10587;BME280;5341;47.606;7.576;2022-08-05T11:36:50;98618.22;;;33.45;36.17
10587;BME280;5341;47.606;7.576;2022-08-05T11:39:46;98621.31;;;33.43;35.42
10587;BME280;5341;47.606;7.576;2022-08-05T11:42:16;98614.34;;;33.37;33.85
10587;BME280;5341;47.606;7.576;2022-08-05T11:44:44;98617.63;;;33.31;32.41
10587;BME280;5341;47.606;7.576;2022-08-05T11:47:13;98612.53;;;33.41;33.92
10587;BME280;5341;47.606;7.576;2022-08-05T11:49:42;98616.34;;;33.58;32.90
10587;BME280;5341;47.606;7.576;2022-08-05T11:52:09;98607.69;;;33.59;30.62
10587;BME280;5341;47.606;7.576;2022-08-05T11:54:38;98600.91;;;33.69;32.15
10587;BME280;5341;47.606;7.576;2022-08-05T11:57:06;98601.06;;;33.93;32.29
10587;BME280;5341;47.606;7.576;2022-08-05T11:59:37;98600.78;;;34.07;29.83
10587;BME280;5341;47.606;7.576;2022-08-05T12:02:06;98601.84;;;34.27;30.67
10587;BME280;5341;47.606;7.576;2022-08-05T12:04:39;98601.63;;;34.53;27.98
10587;BME280;5341;47.606;7.576;2022-08-05T12:07:09;98602.09;;;34.55;28.11
10587;BME280;5341;47.606;7.576;2022-08-05T12:09:39;98601.16;;;34.63;29.60
10587;BME280;5341;47.606;7.576;2022-08-05T12:12:08;98591.50;;;34.93;28.15
10587;BME280;5341;47.606;7.576;2022-08-05T12:14:38;98594.75;;;34.95;27.93
10587;BME280;5341;47.606;7.576;2022-08-05T12:17:07;98587.56;;;34.94;27.73
10587;BME280;5341;47.606;7.576;2022-08-05T12:19:42;98582.31;;;34.81;27.06
10587;BME280;5341;47.606;7.576;2022-08-05T12:22:10;98582.44;;;34.84;26.93
10587;BME280;5341;47.606;7.576;2022-08-05T12:24:43;98588.47;;;35.11;27.10
10587;BME280;5341;47.606;7.576;2022-08-05T12:27:18;98581.63;;;35.33;27.29
10587;BME280;5341;47.606;7.576;2022-08-05T12:29:57;98578.03;;;35.44;27.67
10587;BME280;5341;47.606;7.576;2022-08-05T12:32:26;98577.56;;;35.82;26.62
10587;BME280;5341;47.606;7.576;2022-08-05T12:34:53;98579.06;;;35.92;27.00
10587;BME280;5341;47.606;7.576;2022-08-05T12:37:22;98570.72;;;35.92;26.26
10587;BME280;5341;47.606;7.576;2022-08-05T12:39:50;98577.34;;;35.88;26.08
10587;BME280;5341;47.606;7.576;2022-08-05T12:42:19;98566.47;;;35.70;25.85
10587;BME280;5341;47.606;7.576;2022-08-05T12:44:48;98568.41;;;35.54;26.21
10587;BME280;5341;47.606;7.576;2022-08-05T12:47:26;98566.34;;;35.79;26.12
10587;BME280;5341;47.606;7.576;2022-08-05T12:49:54;98553.59;;;35.78;26.23
10587;BME280;5341;47.606;7.576;2022-08-05T12:52:22;98561.50;;;35.76;26.51
10587;BME280;5341;47.606;7.576;2022-08-05T12:54:49;98557.09;;;35.75;25.89
10587;BME280;5341;47.606;7.576;2022-08-05T12:57:17;98543.25;;;36.06;27.40
10587;BME280;5341;47.606;7.576;2022-08-05T12:59:48;98552.66;;;36.30;25.20
10587;BME280;5341;47.606;7.576;2022-08-05T13:02:19;98545.53;;;36.17;25.49
10587;BME280;5341;47.606;7.576;2022-08-05T13:04:47;98541.94;;;36.32;26.97
10587;BME280;5341;47.606;7.576;2022-08-05T13:07:17;98551.50;;;36.78;25.85
10587;BME280;5341;47.606;7.576;2022-08-05T13:09:49;98542.53;;;37.01;25.15
10587;BME280;5341;47.606;7.576;2022-08-05T13:12:18;98537.75;;;37.01;24.17
10587;BME280;5341;47.606;7.576;2022-08-05T13:14:50;98532.91;;;36.98;25.57
10587;BME280;5341;47.606;7.576;2022-08-05T13:17:20;98531.41;;;36.85;25.28
10587;BME280;5341;47.606;7.576;2022-08-05T13:20:01;98527.59;;;36.77;25.51
10587;BME280;5341;47.606;7.576;2022-08-05T13:22:31;98525.25;;;36.95;24.80
10587;BME280;5341;47.606;7.576;2022-08-05T13:25:01;98525.13;;;37.23;25.06
10587;BME280;5341;47.606;7.576;2022-08-05T13:27:30;98517.38;;;37.32;24.28